Time;durP1;ratioP1;P1;durP2;ratioP2;P2;SDS_P1;SDS_P2;PMS_P1;PMS_P2;Temp;Humidity;BMP_temperature;BMP_pressure;BME280_temperature;BME280_humidity;BME280_pressure;Samples;Min_cycle;Max_cycle;Signal;HPM_P1;HPM_P2
2023/05/21 00:00:09;;;;;;;12.97;11.80;;;;;;;;;;5074579;28;20826;-62
2023/05/21 00:02:36;;;;;;;13.40;12.00;;;;;;;;;;5074594;28;20448;-63
2023/05/21 00:05:03;;;;;;;14.90;13.40;;;;;;;;;;5074393;28;20460;-62
2023/05/21 00:07:31;;;;;;;14.43;13.13;;;;;;;;;;5074602;28;20466;-62
2023/05/21 00:09:58;;;;;;;13.40;12.10;;;;;;;;;;5074398;28;20503;-63
2023/05/21 00:12:27;;;;;;;14.83;13.33;;;;;;;;;;5074478;28;20482;-62
2023/05/21 00:14:54;;;;;;;13.97;12.60;;;;;;;;;;5074222;28;20449;-62
2023/05/21 00:17:21;;;;;;;14.37;13.17;;;;;;;;;;5074134;28;20537;-62
2023/05/21 00:19:48;;;;;;;13.60;12.50;;;;;;;;;;5073901;28;21067;-62
2023/05/21 00:22:15;;;;;;;15.10;12.97;;;;;;;;;;5074306;28;20511;-62
2023/05/21 00:24:44;;;;;;;14.03;12.73;;;;;;;;;;5074259;28;20448;-63
2023/05/21 00:27:11;;;;;;;12.93;11.83;;;;;;;;;;5074537;28;20442;-62
2023/05/21 00:29:39;;;;;;;14.20;13.00;;;;;;;;;;5073910;28;20454;-62
2023/05/21 00:32:06;;;;;;;15.90;14.33;;;;;;;;;;5073831;28;20454;-63
2023/05/21 00:34:33;;;;;;;13.87;12.57;;;;;;;;;;5074097;28;20441;-62
2023/05/21 00:37:01;;;;;;;14.60;13.30;;;;;;;;;;5073963;28;20459;-62
2023/05/21 00:39:28;;;;;;;14.07;12.67;;;;;;;;;;5073541;28;21014;-62
2023/05/21 00:41:56;;;;;;;17.47;13.37;;;;;;;;;;5073785;28;20456;-62
2023/05/21 00:44:24;;;;;;;13.00;11.80;;;;;;;;;;5073700;28;20450;-62
2023/05/21 00:46:53;;;;;;;13.80;12.60;;;;;;;;;;5073598;28;20481;-62
2023/05/21 00:49:21;;;;;;;15.90;13.17;;;;;;;;;;5073632;28;20877;-63
2023/05/21 00:51:48;;;;;;;15.07;13.57;;;;;;;;;;5073691;28;20450;-63
2023/05/21 00:54:15;;;;;;;14.10;12.70;;;;;;;;;;5072855;28;20533;-63
2023/05/21 00:56:42;;;;;;;12.47;11.17;;;;;;;;;;5073438;28;20955;-62
2023/05/21 00:59:09;;;;;;;16.07;13.00;;;;;;;;;;5073269;28;20480;-62
2023/05/21 01:01:36;;;;;;;13.30;12.00;;;;;;;;;;5073590;28;20523;-63
2023/05/21 01:04:05;;;;;;;15.63;14.23;;;;;;;;;;5073456;28;20454;-62
2023/05/21 01:06:33;;;;;;;14.70;13.20;;;;;;;;;;5073261;28;21012;-62
2023/05/21 01:09:00;;;;;;;13.30;12.07;;;;;;;;;;5073298;28;20544;-63
2023/05/21 01:11:38;;;;;;;13.67;12.47;;;;;;;;;;5073271;28;20457;-62
2023/05/21 01:14:06;;;;;;;13.43;12.27;;;;;;;;;;5073459;28;20464;-62
2023/05/21 01:16:35;;;;;;;14.93;13.60;;;;;;;;;;5073323;28;20446;-63
2023/05/21 01:19:02;;;;;;;15.20;13.70;;;;;;;;;;5073162;28;20450;-62
2023/05/21 01:21:32;;;;;;;15.67;14.07;;;;;;;;;;5073221;28;20453;-63
2023/05/21 01:24:01;;;;;;;15.93;13.57;;;;;;;;;;5073113;28;20554;-62
2023/05/21 01:26:29;;;;;;;13.83;12.53;;;;;;;;;;5072973;28;20456;-63
2023/05/21 01:28:56;;;;;;;13.93;12.60;;;;;;;;;;5072908;28;20457;-62
2023/05/21 01:31:25;;;;;;;13.37;12.17;;;;;;;;;;5073137;28;20446;-63
2023/05/21 01:33:53;;;;;;;15.00;13.70;;;;;;;;;;5073039;28;20510;-63
2023/05/21 01:36:25;;;;;;;13.50;12.30;;;;;;;;;;5072898;28;20445;-62
2023/05/21 01:38:56;;;;;;;16.13;14.43;;;;;;;;;;5072742;28;20958;-63
2023/05/21 01:41:25;;;;;;;15.10;13.60;;;;;;;;;;5073033;28;20453;-63
2023/05/21 01:43:53;;;;;;;15.30;13.80;;;;;;;;;;5072974;28;20453;-62
2023/05/21 01:46:23;;;;;;;19.93;13.60;;;;;;;;;;5072831;28;20463;-62
2023/05/21 01:48:50;;;;;;;15.07;13.57;;;;;;;;;;5072757;28;20456;-62
2023/05/21 01:51:17;;;;;;;13.47;12.30;;;;;;;;;;5072720;28;20464;-63
2023/05/21 01:53:44;;;;;;;14.77;13.47;;;;;;;;;;5072727;28;20477;-62
2023/05/21 01:56:11;;;;;;;15.67;14.13;;;;;;;;;;5072840;28;20450;-62
2023/05/21 01:58:39;;;;;;;15.60;14.10;;;;;;;;;;5072664;28;20449;-62
2023/05/21 02:01:07;;;;;;;15.30;14.00;;;;;;;;;;5072628;28;20539;-62
2023/05/21 02:03:34;;;;;;;15.00;13.30;;;;;;;;;;5072585;28;20936;-62
2023/05/21 02:06:01;;;;;;;15.00;13.50;;;;;;;;;;5072619;28;20889;-62
2023/05/21 02:08:28;;;;;;;15.60;14.13;;;;;;;;;;5076787;28;20457;-62
2023/05/21 02:10:55;;;;;;;18.00;16.17;;;;;;;;;;5076788;28;20503;-63
2023/05/21 02:13:23;;;;;;;17.27;15.00;;;;;;;;;;5076597;28;20991;-63
2023/05/21 02:15:53;;;;;;;16.13;14.70;;;;;;;;;;5076502;28;20578;-62
2023/05/21 02:18:20;;;;;;;16.57;14.90;;;;;;;;;;5076406;28;20485;-63
2023/05/21 02:20:47;;;;;;;15.07;13.77;;;;;;;;;;5076539;28;20486;-63
2023/05/21 02:23:14;;;;;;;15.17;13.77;;;;;;;;;;5076697;28;20966;-63
2023/05/21 02:25:41;;;;;;;15.63;14.10;;;;;;;;;;5076561;28;20496;-63
2023/05/21 02:28:08;;;;;;;17.00;15.30;;;;;;;;;;5076242;28;21012;-63
2023/05/21 02:30:35;;;;;;;18.27;16.10;;;;;;;;;;5076320;28;20449;-63
2023/05/21 02:33:03;;;;;;;17.63;15.93;;;;;;;;;;5076191;28;20997;-63
2023/05/21 02:35:31;;;;;;;17.53;15.87;;;;;;;;;;5076414;28;20460;-64
2023/05/21 02:37:58;;;;;;;17.87;16.20;;;;;;;;;;5076242;28;20476;-64
2023/05/21 02:40:25;;;;;;;18.47;16.53;;;;;;;;;;5076160;28;20481;-63
2023/05/21 02:42:51;;;;;;;17.23;15.63;;;;;;;;;;5076163;28;20472;-64
2023/05/21 02:45:19;;;;;;;18.97;16.97;;;;;;;;;;5075922;28;20535;-63
2023/05/21 02:47:46;;;;;;;17.77;15.87;;;;;;;;;;5076342;28;21004;-64
2023/05/21 02:50:14;;;;;;;17.83;15.57;;;;;;;;;;5076010;28;20478;-64
2023/05/21 02:52:41;;;;;;;16.67;15.00;;;;;;;;;;5076040;28;20481;-63
2023/05/21 02:55:08;;;;;;;17.50;15.90;;;;;;;;;;5075726;28;20476;-64
2023/05/21 02:57:35;;;;;;;16.63;15.00;;;;;;;;;;5075825;28;20449;-63
2023/05/21 03:00:04;;;;;;;18.60;16.90;;;;;;;;;;5075588;28;20473;-64
2023/05/21 03:02:31;;;;;;;17.83;15.97;;;;;;;;;;5075901;28;20484;-64
2023/05/21 03:04:58;;;;;;;18.33;16.63;;;;;;;;;;5075764;28;20452;-63
2023/05/21 03:07:26;;;;;;;18.10;16.20;;;;;;;;;;5075673;28;20913;-63
2023/05/21 03:09:53;;;;;;;17.37;15.80;;;;;;;;;;5075629;28;20807;-63
2023/05/21 03:12:19;;;;;;;21.83;16.97;;;;;;;;;;5075467;28;20456;-63
2023/05/21 03:14:46;;;;;;;18.33;16.63;;;;;;;;;;5075426;28;20453;-63
2023/05/21 03:17:13;;;;;;;17.90;16.30;;;;;;;;;;5075147;28;20566;-64
2023/05/21 03:19:41;;;;;;;19.97;17.87;;;;;;;;;;5075464;28;20473;-64
2023/05/21 03:22:08;;;;;;;19.60;17.70;;;;;;;;;;5075483;28;20548;-64
2023/05/21 03:24:36;;;;;;;18.37;16.67;;;;;;;;;;5075265;28;20995;-64
2023/05/21 03:27:05;;;;;;;19.53;17.63;;;;;;;;;;5075240;28;20456;-64
2023/05/21 03:29:32;;;;;;;22.23;18.70;;;;;;;;;;5075382;28;20515;-63
2023/05/21 03:31:59;;;;;;;18.97;17.17;;;;;;;;;;5075344;28;20448;-64
2023/05/21 03:34:26;;;;;;;18.80;17.10;;;;;;;;;;5075317;28;20535;-64
2023/05/21 03:36:53;;;;;;;22.63;18.13;;;;;;;;;;5075224;28;20803;-63
2023/05/21 03:39:20;;;;;;;20.73;18.83;;;;;;;;;;5075070;28;20456;-63
2023/05/21 03:41:48;;;;;;;21.73;19.63;;;;;;;;;;5074907;28;20485;-64
2023/05/21 03:44:15;;;;;;;23.50;19.23;;;;;;;;;;5075224;28;20539;-63
2023/05/21 03:46:43;;;;;;;21.27;18.83;;;;;;;;;;5075087;28;20539;-63
2023/05/21 03:49:10;;;;;;;22.17;19.93;;;;;;;;;;5074692;28;20446;-63
2023/05/21 03:51:38;;;;;;;22.17;20.13;;;;;;;;;;5074952;28;20489;-63
2023/05/21 03:54:05;;;;;;;22.13;20.13;;;;;;;;;;5074600;28;20478;-64
2023/05/21 03:56:32;;;;;;;24.10;21.60;;;;;;;;;;5074922;28;20448;-63
2023/05/21 03:59:01;;;;;;;22.37;20.13;;;;;;;;;;5074793;28;20444;-64
2023/05/21 04:01:28;;;;;;;21.90;19.80;;;;;;;;;;5074691;28;20566;-64
2023/05/21 04:03:54;;;;;;;25.63;20.90;;;;;;;;;;5074623;28;20460;-64
2023/05/21 04:06:21;;;;;;;23.20;21.20;;;;;;;;;;5074563;28;20455;-64
2023/05/21 04:08:48;;;;;;;23.83;21.53;;;;;;;;;;5074366;28;20542;-64
2023/05/21 04:11:15;;;;;;;22.33;20.20;;;;;;;;;;5074459;28;20959;-64
2023/05/21 04:13:42;;;;;;;23.40;21.13;;;;;;;;;;5074610;28;20449;-64
2023/05/21 04:16:13;;;;;;;26.77;20.20;;;;;;;;;;5074513;28;20447;-64
2023/05/21 04:18:40;;;;;;;22.43;20.33;;;;;;;;;;5074365;28;20454;-64
2023/05/21 04:21:07;;;;;;;22.43;20.07;;;;;;;;;;5074194;28;20493;-64
2023/05/21 04:23:36;;;;;;;23.00;20.80;;;;;;;;;;5074151;28;20801;-64
2023/05/21 04:26:03;;;;;;;23.10;20.87;;;;;;;;;;5074341;28;20464;-64
2023/05/21 04:28:30;;;;;;;21.80;19.70;;;;;;;;;;5073872;28;20448;-64
2023/05/21 04:30:57;;;;;;;23.27;21.17;;;;;;;;;;5073566;28;20940;-64
2023/05/21 04:33:25;;;;;;;22.90;20.57;;;;;;;;;;5074140;28;20447;-64
2023/05/21 04:35:53;;;;;;;24.17;21.80;;;;;;;;;;5073885;28;20455;-64
2023/05/21 04:38:19;;;;;;;21.33;19.13;;;;;;;;;;5074042;28;20528;-64
2023/05/21 04:40:49;;;;;;;23.00;20.73;;;;;;;;;;5074029;28;20528;-64
2023/05/21 04:43:16;;;;;;;22.33;20.23;;;;;;;;;;5073874;28;20555;-64
2023/05/21 04:45:43;;;;;;;22.03;19.83;;;;;;;;;;5073907;28;20457;-64
2023/05/21 04:48:10;;;;;;;21.20;19.30;;;;;;;;;;5073644;28;20944;-65
2023/05/21 04:50:40;;;;;;;23.50;21.20;;;;;;;;;;5073628;28;20525;-64
2023/05/21 04:53:07;;;;;;;21.90;19.70;;;;;;;;;;5073802;28;20998;-64
2023/05/21 04:55:38;;;;;;;22.43;20.40;;;;;;;;;;5073395;28;20827;-64
2023/05/21 04:58:05;;;;;;;24.33;21.83;;;;;;;;;;5073551;28;20949;-64
2023/05/21 05:00:32;;;;;;;23.37;21.00;;;;;;;;;;5073473;28;20467;-64
2023/05/21 05:02:59;;;;;;;23.43;21.03;;;;;;;;;;5073457;28;20545;-64
2023/05/21 05:05:26;;;;;;;23.47;21.30;;;;;;;;;;5073620;28;20453;-64
2023/05/21 05:07:54;;;;;;;22.37;20.07;;;;;;;;;;5073481;28;20460;-64
2023/05/21 05:10:21;;;;;;;23.23;20.93;;;;;;;;;;5073435;28;20457;-64
2023/05/21 05:12:48;;;;;;;20.57;18.67;;;;;;;;;;5073325;28;20446;-64
2023/05/21 05:15:15;;;;;;;21.17;19.30;;;;;;;;;;5073311;28;20457;-64
2023/05/21 05:17:42;;;;;;;22.97;20.63;;;;;;;;;;5073243;28;20456;-64
2023/05/21 05:20:11;;;;;;;23.77;21.47;;;;;;;;;;5073206;28;20495;-64
2023/05/21 05:22:38;;;;;;;21.70;19.70;;;;;;;;;;5073292;28;20540;-64
2023/05/21 05:25:06;;;;;;;22.20;20.00;;;;;;;;;;5073307;28;20506;-64
2023/05/21 05:27:33;;;;;;;20.97;18.90;;;;;;;;;;5073119;28;20458;-64
2023/05/21 05:30:00;;;;;;;20.93;19.07;;;;;;;;;;5072922;28;20535;-64
2023/05/21 05:32:27;;;;;;;22.60;20.43;;;;;;;;;;5073264;28;20545;-64
2023/05/21 05:34:54;;;;;;;21.10;19.20;;;;;;;;;;5073193;28;20804;-64
2023/05/21 05:37:20;;;;;;;23.17;20.77;;;;;;;;;;5073133;28;20536;-64
2023/05/21 05:39:47;;;;;;;22.20;20.07;;;;;;;;;;5072921;28;20445;-64
2023/05/21 05:42:16;;;;;;;20.03;18.00;;;;;;;;;;5072761;28;20486;-64
2023/05/21 05:44:42;;;;;;;22.17;19.97;;;;;;;;;;5072853;28;20966;-64
2023/05/21 05:47:09;;;;;;;21.73;19.43;;;;;;;;;;5073027;28;20805;-64
2023/05/21 05:49:36;;;;;;;22.60;20.50;;;;;;;;;;5072988;28;20545;-64
2023/05/21 05:52:03;;;;;;;21.93;19.77;;;;;;;;;;5072826;28;20960;-64
2023/05/21 05:54:30;;;;;;;20.80;18.90;;;;;;;;;;5072671;28;20584;-64
2023/05/21 05:56:57;;;;;;;21.10;19.00;;;;;;;;;;5072734;28;20949;-64
2023/05/21 05:59:25;;;;;;;20.10;18.30;;;;;;;;;;5072711;28;20538;-64
2023/05/21 06:01:52;;;;;;;21.20;18.80;;;;;;;;;;5072810;28;20485;-64
2023/05/21 06:04:19;;;;;;;19.17;17.40;;;;;;;;;;5072799;28;20503;-64
2023/05/21 06:06:46;;;;;;;20.70;18.50;;;;;;;;;;5072743;28;20545;-64
2023/05/21 06:09:13;;;;;;;19.33;17.60;;;;;;;;;;5072642;28;20450;-64
2023/05/21 06:11:40;;;;;;;20.10;18.20;;;;;;;;;;5072512;28;20875;-64
2023/05/21 06:14:06;;;;;;;19.20;17.50;;;;;;;;;;5072821;28;20496;-64
2023/05/21 06:16:36;;;;;;;18.93;17.17;;;;;;;;;;5072721;28;20456;-64
2023/05/21 06:19:02;;;;;;;20.30;18.27;;;;;;;;;;5072617;28;20458;-64
2023/05/21 06:21:29;;;;;;;20.20;18.40;;;;;;;;;;5072530;28;20486;-64
2023/05/21 06:23:56;;;;;;;20.37;18.47;;;;;;;;;;5072559;28;20450;-64
2023/05/21 06:26:23;;;;;;;19.10;17.30;;;;;;;;;;5072448;28;20545;-64
2023/05/21 06:28:50;;;;;;;18.83;17.03;;;;;;;;;;5072565;28;20818;-64
2023/05/21 06:31:17;;;;;;;19.10;17.40;;;;;;;;;;5072602;28;20450;-64
2023/05/21 06:33:48;;;;;;;17.83;16.33;;;;;;;;;;5072431;28;20452;-64
2023/05/21 06:36:15;;;;;;;19.20;17.33;;;;;;;;;;5072541;28;20454;-64
2023/05/21 06:38:42;;;;;;;17.73;16.00;;;;;;;;;;5072276;28;20455;-64
2023/05/21 06:41:09;;;;;;;18.93;17.03;;;;;;;;;;5072481;28;20484;-64
2023/05/21 06:43:36;;;;;;;18.73;16.93;;;;;;;;;;5072498;28;20546;-64
2023/05/21 06:46:03;;;;;;;18.67;16.93;;;;;;;;;;5072459;28;20950;-64
2023/05/21 06:48:30;;;;;;;19.50;17.67;;;;;;;;;;5072381;28;20544;-64
2023/05/21 06:50:58;;;;;;;17.97;16.30;;;;;;;;;;5072338;28;20454;-64
2023/05/21 06:53:25;;;;;;;18.20;16.50;;;;;;;;;;5074243;28;20460;-64
2023/05/21 06:55:52;;;;;;;18.43;16.70;;;;;;;;;;5076091;28;20461;-64
2023/05/21 06:58:20;;;;;;;18.47;16.90;;;;;;;;;;5075870;28;20542;-64
2023/05/21 07:00:47;;;;;;;17.63;16.03;;;;;;;;;;5075912;28;20447;-64
2023/05/21 07:03:14;;;;;;;18.70;16.90;;;;;;;;;;5075780;28;20541;-64
2023/05/21 07:05:41;;;;;;;16.80;15.20;;;;;;;;;;5075903;28;20446;-64
2023/05/21 07:08:09;;;;;;;17.77;16.00;;;;;;;;;;5075708;28;20538;-64
2023/05/21 07:10:36;;;;;;;16.73;15.17;;;;;;;;;;5075706;28;20458;-64
2023/05/21 07:13:03;;;;;;;18.80;16.80;;;;;;;;;;5075753;28;20448;-64
2023/05/21 07:15:30;;;;;;;16.00;14.70;;;;;;;;;;5075628;28;20551;-64
2023/05/21 07:17:57;;;;;;;17.20;15.60;;;;;;;;;;5075560;28;20541;-64
2023/05/21 07:20:24;;;;;;;17.40;15.80;;;;;;;;;;5075452;28;20454;-67
2023/05/21 07:22:51;;;;;;;18.20;16.50;;;;;;;;;;5075175;28;20483;-64
2023/05/21 07:25:19;;;;;;;17.67;16.17;;;;;;;;;;5075380;28;20977;-64
2023/05/21 07:27:46;;;;;;;15.80;14.30;;;;;;;;;;5075513;28;20885;-64
2023/05/21 07:30:14;;;;;;;16.50;15.07;;;;;;;;;;5075175;28;20954;-65
2023/05/21 07:32:41;;;;;;;17.03;15.07;;;;;;;;;;5075258;28;20792;-64
2023/05/21 07:35:08;;;;;;;16.47;14.80;;;;;;;;;;5075134;28;20528;-64
2023/05/21 07:37:35;;;;;;;16.30;14.67;;;;;;;;;;5075371;28;20538;-64
2023/05/21 07:40:05;;;;;;;16.53;14.20;;;;;;;;;;5075132;28;20463;-64
2023/05/21 07:42:33;;;;;;;15.97;14.57;;;;;;;;;;5075050;28;20490;-64
2023/05/21 07:45:01;;;;;;;16.63;15.10;;;;;;;;;;5075071;28;20451;-64
2023/05/21 07:47:30;;;;;;;15.17;13.60;;;;;;;;;;5074902;28;20479;-64
2023/05/21 07:49:58;;;;;;;15.53;14.13;;;;;;;;;;5075142;28;20444;-64
2023/05/21 07:52:25;;;;;;;14.97;13.53;;;;;;;;;;5074872;28;20934;-64
2023/05/21 07:54:52;;;;;;;14.83;13.33;;;;;;;;;;5074666;28;20478;-64
2023/05/21 07:57:19;;;;;;;14.37;13.17;;;;;;;;;;5074608;28;20452;-64
2023/05/21 07:59:47;;;;;;;14.60;13.43;;;;;;;;;;5074619;28;20825;-64
2023/05/21 08:02:14;;;;;;;13.80;12.43;;;;;;;;;;5074517;28;20574;-64
2023/05/21 08:04:41;;;;;;;14.63;13.30;;;;;;;;;;5074666;28;20446;-64
2023/05/21 08:07:09;;;;;;;12.80;11.70;;;;;;;;;;5074659;28;20995;-64
2023/05/21 08:09:36;;;;;;;17.30;13.00;;;;;;;;;;5074484;28;20938;-64
2023/05/21 08:12:03;;;;;;;15.60;12.00;;;;;;;;;;5074489;28;20444;-65
2023/05/21 08:14:30;;;;;;;13.67;12.43;;;;;;;;;;5074337;28;20955;-65
2023/05/21 08:16:58;;;;;;;12.00;10.80;;;;;;;;;;5074638;28;20814;-64
2023/05/21 08:19:25;;;;;;;13.43;12.03;;;;;;;;;;5074466;28;20880;-64
2023/05/21 08:21:52;;;;;;;12.27;11.07;;;;;;;;;;5074302;28;20483;-64
2023/05/21 08:24:21;;;;;;;13.27;11.97;;;;;;;;;;5074309;28;20501;-64
2023/05/21 08:26:49;;;;;;;12.80;11.57;;;;;;;;;;5074120;28;20486;-64
2023/05/21 08:29:16;;;;;;;11.97;10.90;;;;;;;;;;5073989;28;20448;-64
2023/05/21 08:31:43;;;;;;;11.83;10.57;;;;;;;;;;5073919;28;20959;-64
2023/05/21 08:34:11;;;;;;;11.57;10.37;;;;;;;;;;5074264;28;20531;-64
2023/05/21 08:36:41;;;;;;;10.80;9.90;;;;;;;;;;5074126;28;20543;-64
2023/05/21 08:39:08;;;;;;;11.30;10.30;;;;;;;;;;5073972;28;20523;-64
2023/05/21 08:41:36;;;;;;;10.40;9.43;;;;;;;;;;5073744;28;20472;-64
2023/05/21 08:44:03;;;;;;;11.70;9.70;;;;;;;;;;5074064;28;20451;-64
2023/05/21 08:46:33;;;;;;;11.83;9.33;;;;;;;;;;5073898;28;20491;-64
2023/05/21 08:49:02;;;;;;;10.57;9.70;;;;;;;;;;5073665;28;20939;-64
2023/05/21 08:51:31;;;;;;;10.13;9.10;;;;;;;;;;5073791;28;20455;-65
2023/05/21 08:53:58;;;;;;;10.10;9.17;;;;;;;;;;5073558;28;20525;-64
2023/05/21 08:56:25;;;;;;;9.77;8.97;;;;;;;;;;5073551;28;20959;-64
2023/05/21 08:58:52;;;;;;;9.60;8.80;;;;;;;;;;5073674;28;20448;-65
2023/05/21 09:01:21;;;;;;;10.40;9.37;;;;;;;;;;5073546;28;20428;-64
2023/05/21 09:03:48;;;;;;;9.60;8.90;;;;;;;;;;5073545;28;20536;-64
2023/05/21 09:06:15;;;;;;;11.53;9.50;;;;;;;;;;5073457;28;20452;-64
2023/05/21 09:08:44;;;;;;;9.17;8.47;;;;;;;;;;5073225;28;20454;-64
2023/05/21 09:11:12;;;;;;;8.70;7.90;;;;;;;;;;5073514;28;20879;-64
2023/05/21 09:13:39;;;;;;;9.67;8.87;;;;;;;;;;5073427;28;20486;-65
2023/05/21 09:16:07;;;;;;;8.30;7.50;;;;;;;;;;5072931;28;20451;-64
2023/05/21 09:18:34;;;;;;;8.70;7.80;;;;;;;;;;5073166;28;20506;-64
2023/05/21 09:21:21;;;;;;;7.87;7.17;;;;;;;;;;5073201;28;20491;-64
2023/05/21 09:23:53;;;;;;;8.47;7.73;;;;;;;;;;5073379;28;20551;-64
2023/05/21 09:26:22;;;;;;;7.80;7.10;;;;;;;;;;5073282;28;20546;-64
2023/05/21 09:28:49;;;;;;;8.73;7.67;;;;;;;;;;5073169;28;20458;-64
2023/05/21 09:31:16;;;;;;;7.60;6.90;;;;;;;;;;5073085;28;20497;-64
2023/05/21 09:33:46;;;;;;;8.80;7.23;;;;;;;;;;5072926;28;20539;-65
2023/05/21 09:36:13;;;;;;;9.13;6.67;;;;;;;;;;5073009;28;20513;-64
2023/05/21 09:38:40;;;;;;;7.67;6.87;;;;;;;;;;5073039;28;20484;-65
2023/05/21 09:41:08;;;;;;;7.30;6.70;;;;;;;;;;5073039;28;20811;-64
2023/05/21 09:43:36;;;;;;;6.40;6.00;;;;;;;;;;5072782;28;20487;-64
2023/05/21 09:46:03;;;;;;;6.93;6.43;;;;;;;;;;5072773;28;20447;-64
2023/05/21 09:48:33;;;;;;;6.70;6.17;;;;;;;;;;5072731;28;20459;-64
2023/05/21 09:51:08;;;;;;;11.43;5.50;;;;;;;;;;5073001;28;20463;-64
2023/05/21 09:53:35;;;;;;;9.90;6.23;;;;;;;;;;5072844;28;20455;-64
2023/05/21 09:56:04;;;;;;;6.53;5.93;;;;;;;;;;5073204;28;20454;-64
2023/05/21 09:58:32;;;;;;;5.90;5.50;;;;;;;;;;5072826;28;20493;-65
2023/05/21 10:00:59;;;;;;;6.70;6.10;;;;;;;;;;5072612;28;20451;-64
2023/05/21 10:03:28;;;;;;;6.50;5.80;;;;;;;;;;5072714;28;20536;-65
2023/05/21 10:05:55;;;;;;;6.37;5.43;;;;;;;;;;5072778;28;20452;-65
2023/05/21 10:08:23;;;;;;;8.60;6.17;;;;;;;;;;5072658;28;20811;-65
2023/05/21 10:10:50;;;;;;;6.23;5.83;;;;;;;;;;5072671;28;20452;-64
2023/05/21 10:13:19;;;;;;;6.17;5.77;;;;;;;;;;5072630;28;20447;-64
2023/05/21 10:15:50;;;;;;;6.40;5.90;;;;;;;;;;5072848;28;20448;-65
2023/05/21 10:18:18;;;;;;;6.67;6.07;;;;;;;;;;5072702;28;20454;-65
2023/05/21 10:20:46;;;;;;;7.00;6.40;;;;;;;;;;5072576;28;20451;-64
2023/05/21 10:23:13;;;;;;;6.00;5.50;;;;;;;;;;5072536;28;20543;-64
2023/05/21 10:25:40;;;;;;;6.00;5.43;;;;;;;;;;5072492;28;20447;-64
2023/05/21 10:28:07;;;;;;;5.63;5.13;;;;;;;;;;5074130;28;20474;-64
2023/05/21 10:30:34;;;;;;;6.20;5.10;;;;;;;;;;5076460;28;20539;-65
2023/05/21 10:33:03;;;;;;;7.00;6.27;;;;;;;;;;5076511;28;20483;-64
2023/05/21 10:35:30;;;;;;;6.10;5.70;;;;;;;;;;5076396;28;20487;-64
2023/05/21 10:37:57;;;;;;;6.37;5.70;;;;;;;;;;5076239;28;20447;-64
2023/05/21 10:40:24;;;;;;;6.83;5.77;;;;;;;;;;5076038;28;20534;-64
2023/05/21 10:43:10;;;;;;;5.73;5.30;;;;;;;;;;5076210;28;20483;-64
2023/05/21 10:45:46;;;;;;;8.83;5.77;;;;;;;;;;5076134;28;20451;-64
2023/05/21 10:48:23;;;;;;;8.27;5.47;;;;;;;;;;5076005;28;20459;-64
2023/05/21 10:51:11;;;;;;;5.97;5.57;;;;;;;;;;5075961;28;20810;-64
2023/05/21 10:53:45;;;;;;;5.90;5.40;;;;;;;;;;5072471;28;20870;-64
2023/05/21 10:56:18;;;;;;;6.93;5.30;;;;;;;;;;5075987;28;20483;-64
2023/05/21 10:58:55;;;;;;;5.50;5.10;;;;;;;;;;5076288;28;20807;-65
2023/05/21 11:01:23;;;;;;;9.50;5.90;;;;;;;;;;5075631;28;20811;-64
2023/05/21 11:03:51;;;;;;;6.50;6.00;;;;;;;;;;5075776;28;20479;-64
2023/05/21 11:06:24;;;;;;;5.67;5.20;;;;;;;;;;5075861;28;20803;-64
2023/05/21 11:08:52;;;;;;;5.70;5.20;;;;;;;;;;5075595;28;20935;-64
2023/05/21 11:11:41;;;;;;;5.37;4.97;;;;;;;;;;5075551;28;20459;-64
2023/05/21 11:14:23;;;;;;;5.30;4.90;;;;;;;;;;5075757;28;20454;-64
2023/05/21 11:16:50;;;;;;;6.50;5.90;;;;;;;;;;5075399;28;20802;-64
2023/05/21 11:19:19;;;;;;;5.63;5.33;;;;;;;;;;5075554;28;20444;-64
2023/05/21 11:21:51;;;;;;;5.93;5.53;;;;;;;;;;5075204;28;20542;-64
2023/05/21 11:24:19;;;;;;;6.33;5.80;;;;;;;;;;5075204;28;20475;-64
2023/05/21 11:27:05;;;;;;;5.33;4.93;;;;;;;;;;5075516;28;20942;-65
2023/05/21 11:29:39;;;;;;;6.43;5.30;;;;;;;;;;5075284;28;20539;-64
2023/05/21 11:32:07;;;;;;;5.63;5.07;;;;;;;;;;5075304;28;20450;-64
2023/05/21 11:34:38;;;;;;;7.33;5.50;;;;;;;;;;5075070;28;20448;-65
2023/05/21 11:37:27;;;;;;;11.03;6.03;;;;;;;;;;5075299;28;20501;-64
2023/05/21 11:39:54;;;;;;;6.33;5.73;;;;;;;;;;5074582;28;20458;-64
2023/05/21 11:42:31;;;;;;;6.57;5.97;;;;;;;;;;5074827;28;20815;-64
2023/05/21 11:44:59;;;;;;;8.13;6.00;;;;;;;;;;5074711;28;20451;-64
2023/05/21 11:47:26;;;;;;;6.03;5.43;;;;;;;;;;5074903;28;20547;-64
2023/05/21 11:49:54;;;;;;;5.00;4.60;;;;;;;;;;5074917;28;20531;-64
2023/05/21 11:52:21;;;;;;;8.83;5.97;;;;;;;;;;5074886;28;20446;-64
2023/05/21 11:54:50;;;;;;;5.50;5.00;;;;;;;;;;5074678;28;20468;-64
2023/05/21 11:57:18;;;;;;;6.83;5.40;;;;;;;;;;5074724;28;20480;-64
2023/05/21 11:59:45;;;;;;;6.00;5.40;;;;;;;;;;5074516;28;20451;-64
2023/05/21 12:02:15;;;;;;;5.67;5.20;;;;;;;;;;5074795;28;20501;-64
2023/05/21 12:04:42;;;;;;;8.57;5.40;;;;;;;;;;5074731;28;20452;-64
2023/05/21 12:07:12;;;;;;;6.13;5.63;;;;;;;;;;5074353;28;20492;-64
2023/05/21 12:09:40;;;;;;;8.73;6.10;;;;;;;;;;5074415;28;20444;-64
2023/05/21 12:12:08;;;;;;;6.87;6.20;;;;;;;;;;5074518;28;20815;-65
2023/05/21 12:14:35;;;;;;;8.57;5.67;;;;;;;;;;5074564;28;20462;-64
2023/05/21 12:17:03;;;;;;;8.47;6.30;;;;;;;;;;5074627;28;20547;-64
2023/05/21 12:19:32;;;;;;;6.07;5.50;;;;;;;;;;5074204;28;20456;-64
2023/05/21 12:22:00;;;;;;;8.43;6.13;;;;;;;;;;5074242;28;20448;-64
2023/05/21 12:24:29;;;;;;;9.30;5.80;;;;;;;;;;5074038;28;20994;-64
2023/05/21 12:26:58;;;;;;;7.20;5.77;;;;;;;;;;5074086;28;20439;-64
2023/05/21 12:29:25;;;;;;;6.70;6.13;;;;;;;;;;5074245;28;20484;-64
2023/05/21 12:31:52;;;;;;;6.00;5.53;;;;;;;;;;5074275;28;20447;-64
2023/05/21 12:34:34;;;;;;;6.30;5.90;;;;;;;;;;5074037;28;20452;-64
2023/05/21 12:37:02;;;;;;;6.43;5.67;;;;;;;;;;5073786;28;20978;-65
2023/05/21 12:39:31;;;;;;;5.70;5.03;;;;;;;;;;5073923;28;20543;-64
2023/05/21 12:41:58;;;;;;;5.30;4.80;;;;;;;;;;5073822;28;20542;-64
2023/05/21 12:44:29;;;;;;;5.53;4.93;;;;;;;;;;5073767;28;20480;-64
2023/05/21 12:46:57;;;;;;;5.93;5.33;;;;;;;;;;5073518;28;21068;-64
2023/05/21 12:49:37;;;;;;;4.83;4.53;;;;;;;;;;5073438;28;20978;-64
2023/05/21 12:52:04;;;;;;;5.47;5.07;;;;;;;;;;5073443;28;20480;-64
2023/05/21 12:54:34;;;;;;;10.13;5.60;;;;;;;;;;5073515;28;20482;-64
2023/05/21 12:57:08;;;;;;;13.57;5.60;;;;;;;;;;5073648;28;20459;-64
2023/05/21 12:59:45;;;;;;;5.23;4.93;;;;;;;;;;5073397;28;20448;-64
2023/05/21 13:02:14;;;;;;;5.90;5.50;;;;;;;;;;5073364;28;20443;-64
2023/05/21 13:04:41;;;;;;;6.77;5.87;;;;;;;;;;5073391;28;20492;-64
2023/05/21 13:07:08;;;;;;;5.50;5.10;;;;;;;;;;5073327;28;20456;-64
2023/05/21 13:09:37;;;;;;;7.73;5.17;;;;;;;;;;5073254;28;20498;-64
2023/05/21 13:12:04;;;;;;;6.03;5.07;;;;;;;;;;5073286;28;20538;-64
2023/05/21 13:14:31;;;;;;;5.70;5.27;;;;;;;;;;5073252;28;20455;-64
2023/05/21 13:16:58;;;;;;;6.13;5.43;;;;;;;;;;5073129;28;20487;-64
2023/05/21 13:19:25;;;;;;;5.40;5.00;;;;;;;;;;5073243;28;20440;-64
2023/05/21 13:21:52;;;;;;;5.77;4.97;;;;;;;;;;5073258;28;20448;-64
2023/05/21 13:24:19;;;;;;;5.60;5.00;;;;;;;;;;5073177;28;20488;-64
2023/05/21 13:26:47;;;;;;;6.17;5.50;;;;;;;;;;5073076;28;20447;-64
2023/05/21 13:29:15;;;;;;;7.40;5.83;;;;;;;;;;5072992;28;20456;-64
2023/05/21 13:31:42;;;;;;;5.60;5.13;;;;;;;;;;5073189;28;20800;-64
2023/05/21 13:34:09;;;;;;;5.67;5.27;;;;;;;;;;5073235;28;20454;-64
2023/05/21 13:36:36;;;;;;;7.60;5.70;;;;;;;;;;5073295;28;20448;-65
2023/05/21 13:39:03;;;;;;;6.00;5.43;;;;;;;;;;5072898;28;20471;-64
2023/05/21 13:41:30;;;;;;;5.67;5.13;;;;;;;;;;5072796;28;20492;-64
2023/05/21 13:43:59;;;;;;;8.20;6.27;;;;;;;;;;5072593;28;20480;-64
2023/05/21 13:46:26;;;;;;;5.87;5.40;;;;;;;;;;5072981;28;20542;-64
2023/05/21 13:48:53;;;;;;;6.60;6.07;;;;;;;;;;5072936;28;20454;-65
2023/05/21 13:51:20;;;;;;;8.77;5.40;;;;;;;;;;5072925;28;20447;-64
2023/05/21 13:53:46;;;;;;;6.67;5.70;;;;;;;;;;5072618;28;20506;-64
2023/05/21 13:56:13;;;;;;;6.60;6.10;;;;;;;;;;5072723;28;20866;-64
2023/05/21 13:58:40;;;;;;;7.40;5.37;;;;;;;;;;5072563;28;20520;-64
2023/05/21 14:01:09;;;;;;;7.40;5.97;;;;;;;;;;5073611;28;20780;-64
2023/05/21 14:03:36;;;;;;;8.07;5.50;;;;;;;;;;5079470;28;20480;-64
2023/05/21 14:06:03;;;;;;;8.73;5.53;;;;;;;;;;5079456;28;20875;-64
2023/05/21 14:08:30;;;;;;;5.90;5.00;;;;;;;;;;5079381;28;20451;-64
2023/05/21 14:10:57;;;;;;;11.13;5.97;;;;;;;;;;5079270;28;20458;-65
2023/05/21 14:13:24;;;;;;;6.00;5.40;;;;;;;;;;5079240;28;21012;-65
2023/05/21 14:15:51;;;;;;;7.27;6.03;;;;;;;;;;5079476;28;20458;-64
2023/05/21 14:18:19;;;;;;;5.67;5.17;;;;;;;;;;5079233;28;20531;-64
2023/05/21 14:20:46;;;;;;;5.93;5.47;;;;;;;;;;5079315;28;20456;-64
2023/05/21 14:23:13;;;;;;;6.03;5.47;;;;;;;;;;5079109;28;20993;-64
2023/05/21 14:25:41;;;;;;;4.73;4.43;;;;;;;;;;5079147;28;20534;-65
2023/05/21 14:28:08;;;;;;;6.40;5.20;;;;;;;;;;5079326;28;20803;-64
2023/05/21 14:30:35;;;;;;;7.70;4.60;;;;;;;;;;5079100;28;20555;-64